createdAt,value
2022-07-29T00:01:08.424Z,99.90
2022-07-29T00:03:47.587Z,99.90
2022-07-29T00:06:15.625Z,99.90
2022-07-29T00:08:42.647Z,99.90
2022-07-29T00:11:10.492Z,99.90
2022-07-29T00:13:37.667Z,99.90
2022-07-29T00:16:05.426Z,99.90
2022-07-29T00:18:33.256Z,99.90
2022-07-29T00:21:00.914Z,99.90
2022-07-29T00:23:28.168Z,99.90
2022-07-29T00:25:55.774Z,99.90
2022-07-29T00:28:22.836Z,99.90
2022-07-29T00:30:49.836Z,99.90
2022-07-29T00:33:17.187Z,99.90
2022-07-29T00:35:44.370Z,99.90
2022-07-29T00:38:13.365Z,99.90
2022-07-29T00:40:43.253Z,99.90
2022-07-29T00:43:12.471Z,99.90
2022-07-29T00:45:39.625Z,99.90
2022-07-29T00:48:07.447Z,99.90
2022-07-29T00:50:34.560Z,99.90
2022-07-29T00:53:03.219Z,99.90
2022-07-29T00:55:31.155Z,99.90
2022-07-29T00:57:59.957Z,99.90
2022-07-29T01:00:29.508Z,99.90
2022-07-29T01:02:57.141Z,99.90
2022-07-29T01:05:50.020Z,99.90
2022-07-29T01:08:16.310Z,99.90
2022-07-29T01:10:45.103Z,99.90
2022-07-29T01:13:12.940Z,99.90
2022-07-29T01:15:49.454Z,99.90
2022-07-29T01:18:33.265Z,99.90
2022-07-29T01:21:20.627Z,99.90
2022-07-29T01:23:56.638Z,99.90
2022-07-29T01:26:36.146Z,99.90
2022-07-29T01:29:08.267Z,99.90
2022-07-29T01:32:00.657Z,99.90
2022-07-29T01:34:49.211Z,99.90
2022-07-29T01:37:30.864Z,99.90
2022-07-29T01:39:59.622Z,99.90
2022-07-29T01:42:48.149Z,99.90
2022-07-29T01:45:41.220Z,99.90
2022-07-29T01:48:27.276Z,99.90
2022-07-29T01:51:30.207Z,99.90
2022-07-29T01:54:14.067Z,99.90
2022-07-29T01:56:43.485Z,99.90
2022-07-29T01:59:11.903Z,99.90
2022-07-29T02:01:42.602Z,99.90
2022-07-29T02:04:11.985Z,99.90
2022-07-29T02:07:02.634Z,99.90
2022-07-29T02:09:31.494Z,99.90
2022-07-29T02:12:01.405Z,99.90
2022-07-29T02:14:33.741Z,99.90
2022-07-29T02:17:02.735Z,99.90
2022-07-29T02:19:32.746Z,99.90
2022-07-29T02:22:01.033Z,99.90
2022-07-29T02:24:30.794Z,99.90
2022-07-29T02:26:59.832Z,99.90
2022-07-29T02:29:29.610Z,99.90
2022-07-29T02:31:58.800Z,99.90
2022-07-29T02:34:26.663Z,99.90
2022-07-29T02:36:56.389Z,99.90
2022-07-29T02:39:28.473Z,99.90
2022-07-29T02:42:08.604Z,99.90
2022-07-29T02:44:36.505Z,99.90
2022-07-29T02:47:11.395Z,99.90
2022-07-29T02:49:49.909Z,99.90
2022-07-29T02:52:25.811Z,99.90
2022-07-29T02:54:59.019Z,99.90
2022-07-29T02:57:54.887Z,99.90
2022-07-29T03:00:27.857Z,99.90
2022-07-29T03:02:59.229Z,99.90
2022-07-29T03:05:27.463Z,99.90
2022-07-29T03:08:01.529Z,99.90
2022-07-29T03:10:29.675Z,99.90
2022-07-29T03:12:57.576Z,99.90
2022-07-29T03:15:26.915Z,99.90
2022-07-29T03:17:54.896Z,99.90
2022-07-29T03:20:22.182Z,99.90
2022-07-29T03:22:49.605Z,99.90
2022-07-29T03:25:18.795Z,99.90
2022-07-29T03:27:48.955Z,99.90
2022-07-29T03:30:21.551Z,99.90
2022-07-29T03:32:51.890Z,99.90
2022-07-29T03:35:20.840Z,99.90
2022-07-29T03:37:48.091Z,99.90
2022-07-29T03:40:22.909Z,99.90
2022-07-29T03:42:52.675Z,99.90
2022-07-29T03:45:21.538Z,99.90
2022-07-29T03:47:57.086Z,99.90
2022-07-29T03:50:28.484Z,99.90
2022-07-29T03:52:55.665Z,99.90
2022-07-29T03:55:22.734Z,99.90
2022-07-29T03:57:51.465Z,99.90
2022-07-29T04:00:19.042Z,99.90
2022-07-29T04:02:46.672Z,99.90
2022-07-29T04:05:14.967Z,99.90
2022-07-29T04:07:48.103Z,99.90
2022-07-29T04:10:16.560Z,99.90
2022-07-29T04:12:43.921Z,99.90
2022-07-29T04:15:12.070Z,99.90
2022-07-29T04:17:39.486Z,99.90
2022-07-29T04:20:07.081Z,99.90
2022-07-29T04:22:34.455Z,99.90
2022-07-29T04:25:04.164Z,99.90
2022-07-29T04:27:31.733Z,99.90
2022-07-29T04:29:58.933Z,99.90
2022-07-29T04:32:26.882Z,99.90
2022-07-29T04:34:54.016Z,99.90
2022-07-29T04:37:21.050Z,99.90
2022-07-29T04:39:48.681Z,99.90
2022-07-29T04:42:15.722Z,99.90
2022-07-29T04:44:44.553Z,99.90
2022-07-29T04:47:13.119Z,99.90
2022-07-29T04:49:40.255Z,99.90
2022-07-29T04:52:07.448Z,99.90
2022-07-29T04:54:34.908Z,99.90
2022-07-29T04:57:01.945Z,99.90
2022-07-29T04:59:28.996Z,99.90
2022-07-29T05:01:56.958Z,99.90
2022-07-29T05:04:24.084Z,99.90
2022-07-29T05:06:51.071Z,99.90
2022-07-29T05:09:18.642Z,99.90
2022-07-29T05:11:45.632Z,99.90
2022-07-29T05:14:12.914Z,99.90
2022-07-29T05:16:40.486Z,99.90
2022-07-29T05:19:12.180Z,99.90
2022-07-29T05:21:41.674Z,99.90
2022-07-29T05:24:08.805Z,99.90
2022-07-29T05:26:35.799Z,99.90
2022-07-29T05:29:03.535Z,99.90
2022-07-29T05:31:30.693Z,99.90
2022-07-29T05:33:57.803Z,99.90
2022-07-29T05:36:25.255Z,99.90
2022-07-29T05:38:52.272Z,99.90
2022-07-29T05:41:20.215Z,99.90
2022-07-29T05:43:47.739Z,99.90
2022-07-29T05:46:14.800Z,99.90
2022-07-29T05:48:41.987Z,99.90
2022-07-29T05:51:09.495Z,99.90
2022-07-29T05:53:36.497Z,99.90
2022-07-29T05:56:06.825Z,99.90
2022-07-29T05:58:34.474Z,99.90
2022-07-29T06:01:01.655Z,99.90
2022-07-29T06:03:29.189Z,99.90
2022-07-29T06:05:56.830Z,99.90
2022-07-29T06:08:23.794Z,99.90
2022-07-29T06:10:50.802Z,99.90
2022-07-29T06:13:18.232Z,99.90
2022-07-29T06:15:45.339Z,99.90
2022-07-29T06:18:13.470Z,99.90
2022-07-29T06:20:41.549Z,99.90
2022-07-29T06:23:08.889Z,99.90
2022-07-29T06:25:35.897Z,99.90
2022-07-29T06:28:04.052Z,99.90
2022-07-29T06:30:31.191Z,99.90
2022-07-29T06:32:58.230Z,99.90
2022-07-29T06:35:41.229Z,99.90
2022-07-29T06:38:33.972Z,99.90
2022-07-29T06:40:57.432Z,99.90
2022-07-29T06:43:24.389Z,99.90
2022-07-29T06:45:53.722Z,99.90
2022-07-29T06:48:21.340Z,99.90
2022-07-29T06:50:48.360Z,99.90
2022-07-29T06:53:15.343Z,99.90
2022-07-29T06:55:43.083Z,99.90
2022-07-29T06:58:10.093Z,99.90
2022-07-29T07:00:37.275Z,99.90
2022-07-29T07:03:04.899Z,99.90
2022-07-29T07:05:31.938Z,99.90
2022-07-29T07:07:58.991Z,99.90
2022-07-29T07:10:26.541Z,99.90
2022-07-29T07:12:53.649Z,99.90
2022-07-29T07:15:20.668Z,99.90
2022-07-29T07:17:49.110Z,99.90
2022-07-29T07:20:17.253Z,99.90
2022-07-29T07:22:44.548Z,99.90
2022-07-29T07:25:12.770Z,99.90
2022-07-29T07:27:40.031Z,99.90
2022-07-29T07:30:08.221Z,99.90
2022-07-29T07:32:36.350Z,99.90
2022-07-29T07:35:05.431Z,99.90
2022-07-29T07:37:33.378Z,99.70
2022-07-29T07:40:01.218Z,98.90
2022-07-29T07:42:28.335Z,97.90
2022-07-29T07:45:12.544Z,97.80
2022-07-29T07:47:41.074Z,97.70
2022-07-29T07:50:13.803Z,98.10
2022-07-29T07:52:50.493Z,97.80
2022-07-29T07:55:17.953Z,96.80
2022-07-29T07:57:45.736Z,96.00
2022-07-29T08:00:18.023Z,95.20
2022-07-29T08:02:45.508Z,94.10
2022-07-29T08:05:13.288Z,93.10
2022-07-29T08:07:40.921Z,91.30
2022-07-29T08:10:08.306Z,90.60
2022-07-29T08:12:35.360Z,89.40
2022-07-29T08:15:03.207Z,88.70
2022-07-29T08:17:30.220Z,90.00
2022-07-29T08:20:02.699Z,90.10
2022-07-29T08:22:30.711Z,90.20
2022-07-29T08:24:57.745Z,90.80
2022-07-29T08:30:12.912Z,91.50
2022-07-29T08:32:56.254Z,92.20
2022-07-29T08:35:25.286Z,92.40
2022-07-29T08:37:53.089Z,91.80
2022-07-29T08:40:32.583Z,92.00
2022-07-29T08:43:06.551Z,92.00
2022-07-29T08:45:52.094Z,92.60
2022-07-29T08:48:21.670Z,93.20
2022-07-29T08:50:53.486Z,93.10
2022-07-29T08:53:22.392Z,93.20
2022-07-29T08:55:50.956Z,93.00
2022-07-29T08:58:23.016Z,92.40
2022-07-29T09:00:52.153Z,92.50
2022-07-29T09:03:21.339Z,92.10
2022-07-29T09:05:49.202Z,92.00
2022-07-29T09:08:17.310Z,91.30
2022-07-29T09:10:45.630Z,91.20
2022-07-29T09:13:12.864Z,91.40
2022-07-29T09:15:40.335Z,91.10
2022-07-29T09:18:07.394Z,90.60
2022-07-29T09:20:34.422Z,90.00
2022-07-29T09:23:09.263Z,90.00
2022-07-29T09:25:40.504Z,90.10
2022-07-29T09:28:11.655Z,89.60
2022-07-29T09:30:52.950Z,90.50
2022-07-29T09:33:22.075Z,91.00
2022-07-29T09:36:03.417Z,90.60
2022-07-29T09:38:31.811Z,90.80
2022-07-29T09:41:05.998Z,91.00
2022-07-29T09:43:34.733Z,90.60
2022-07-29T09:46:12.572Z,90.30
2022-07-29T09:48:40.296Z,90.50
2022-07-29T09:51:25.533Z,90.90
2022-07-29T09:53:57.300Z,90.70
2022-07-29T09:56:40.505Z,90.20
2022-07-29T09:59:09.577Z,90.50
2022-07-29T10:01:36.642Z,91.10
2022-07-29T10:04:05.057Z,91.00
2022-07-29T10:06:32.837Z,91.80
2022-07-29T10:09:10.553Z,91.20
2022-07-29T10:11:49.562Z,90.90
2022-07-29T10:14:17.658Z,90.90
2022-07-29T10:16:45.387Z,91.20
2022-07-29T10:19:14.453Z,90.90
2022-07-29T10:21:41.639Z,90.80
2022-07-29T10:24:14.900Z,90.60
2022-07-29T10:26:43.204Z,90.60
2022-07-29T10:29:10.708Z,90.70
2022-07-29T10:32:11.909Z,90.70
2022-07-29T10:35:10.195Z,91.10
2022-07-29T10:37:55.084Z,90.60
2022-07-29T10:40:58.387Z,90.80
2022-07-29T10:43:29.778Z,90.50
2022-07-29T10:45:59.180Z,90.50
2022-07-29T10:48:26.747Z,91.00
2022-07-29T10:51:04.617Z,90.70
2022-07-29T10:53:52.379Z,90.60
2022-07-29T10:56:28.930Z,90.80
2022-07-29T10:59:21.488Z,90.80
2022-07-29T11:01:53.641Z,90.60
2022-07-29T11:04:44.655Z,90.80
2022-07-29T11:07:12.507Z,90.80
2022-07-29T11:09:40.025Z,90.70
2022-07-29T11:12:38.724Z,90.50
2022-07-29T11:15:11.464Z,90.60
2022-07-29T11:17:59.657Z,90.70
2022-07-29T11:20:33.978Z,90.80
2022-07-29T11:23:01.338Z,90.70
2022-07-29T11:25:43.004Z,90.90
2022-07-29T11:28:22.986Z,91.20
2022-07-29T11:30:54.645Z,91.30
2022-07-29T11:33:54.513Z,90.70
2022-07-29T11:36:28.136Z,91.00
2022-07-29T11:39:37.220Z,90.90
2022-07-29T11:42:41.883Z,90.60
2022-07-29T11:48:31.370Z,90.20
2022-07-29T11:51:00.571Z,90.40
2022-07-29T11:53:29.197Z,90.30
2022-07-29T11:56:00.697Z,90.30
2022-07-29T11:58:29.291Z,90.70
2022-07-29T12:00:57.778Z,90.40
2022-07-29T12:03:35.455Z,90.00
2022-07-29T12:06:14.419Z,90.10
2022-07-29T12:08:43.822Z,90.20
2022-07-29T12:11:20.920Z,90.50
2022-07-29T12:13:49.703Z,90.10
2022-07-29T12:16:25.896Z,90.20
2022-07-29T12:19:04.580Z,90.50
2022-07-29T12:21:56.256Z,90.70
2022-07-29T12:24:26.701Z,90.30
2022-07-29T12:26:55.167Z,90.50
2022-07-29T12:29:35.155Z,90.10
2022-07-29T12:32:05.743Z,90.50
2022-07-29T12:34:37.624Z,90.20
2022-07-29T12:37:04.893Z,90.20
2022-07-29T12:39:32.096Z,90.50
2022-07-29T12:42:03.771Z,90.60
2022-07-29T12:44:51.541Z,90.80
2022-07-29T12:47:20.429Z,90.70
2022-07-29T12:49:48.392Z,90.60
2022-07-29T12:52:32.483Z,90.40
2022-07-29T12:54:59.993Z,90.30
2022-07-29T12:57:27.795Z,89.80
2022-07-29T13:00:12.743Z,89.50
2022-07-29T13:02:41.677Z,89.90
2022-07-29T13:05:09.858Z,89.50
2022-07-29T13:07:54.395Z,89.40
2022-07-29T13:10:25.293Z,89.30
2022-07-29T13:13:16.631Z,89.60
2022-07-29T13:15:46.164Z,89.50
2022-07-29T13:18:30.902Z,89.30
2022-07-29T13:21:10.725Z,89.90
2022-07-29T13:23:38.363Z,90.30
2022-07-29T13:26:07.330Z,90.10
2022-07-29T13:28:34.752Z,90.40
2022-07-29T13:31:02.524Z,90.10
2022-07-29T13:33:29.974Z,90.40
2022-07-29T13:35:57.398Z,90.30
2022-07-29T13:38:24.467Z,90.40
2022-07-29T13:40:59.164Z,90.40
2022-07-29T13:43:26.497Z,90.10
2022-07-29T13:45:53.625Z,90.50
2022-07-29T13:48:21.167Z,90.80
2022-07-29T13:50:48.342Z,90.90
2022-07-29T13:53:17.947Z,91.00
2022-07-29T13:55:45.632Z,90.50
2022-07-29T13:58:12.630Z,90.50
2022-07-29T14:00:39.719Z,91.00
2022-07-29T14:03:07.016Z,91.00
2022-07-29T14:05:34.071Z,91.20
2022-07-29T14:08:01.098Z,91.30
2022-07-29T14:10:28.552Z,91.10
2022-07-29T14:12:55.617Z,91.20
2022-07-29T14:15:22.731Z,91.30
2022-07-29T14:17:50.288Z,91.40
2022-07-29T14:20:17.419Z,91.70
2022-07-29T14:22:45.253Z,91.50
2022-07-29T14:25:15.035Z,91.70
2022-07-29T14:27:43.986Z,91.60
2022-07-29T14:30:11.634Z,91.40
2022-07-29T14:32:39.154Z,91.50
2022-07-29T14:35:07.411Z,91.60
2022-07-29T14:37:39.079Z,91.70
2022-07-29T14:40:09.360Z,91.90
2022-07-29T14:42:36.541Z,92.00
2022-07-29T14:45:04.433Z,92.50
2022-07-29T14:47:32.068Z,91.90
2022-07-29T14:49:59.084Z,92.00
2022-07-29T14:52:26.171Z,92.00
2022-07-29T14:54:53.691Z,92.00
2022-07-29T14:57:20.712Z,92.20
2022-07-29T14:59:47.719Z,92.40
2022-07-29T15:02:15.275Z,92.70
2022-07-29T15:04:42.339Z,92.40
2022-07-29T15:07:09.384Z,91.90
2022-07-29T15:09:49.678Z,92.10
2022-07-29T15:12:17.095Z,92.10
2022-07-29T15:14:44.763Z,92.80
2022-07-29T15:17:11.906Z,92.60
2022-07-29T15:19:39.054Z,92.80
2022-07-29T15:22:12.192Z,92.70
2022-07-29T15:24:39.230Z,92.70
2022-07-29T15:27:06.241Z,92.50
2022-07-29T15:29:33.778Z,92.70
2022-07-29T15:32:01.146Z,92.50
2022-07-29T15:34:28.517Z,92.60
2022-07-29T15:36:56.008Z,92.60
2022-07-29T15:39:23.129Z,92.90
2022-07-29T15:41:50.714Z,93.10
2022-07-29T15:44:18.926Z,93.20
2022-07-29T15:46:45.998Z,93.00
2022-07-29T15:49:13.076Z,93.20
2022-07-29T15:51:40.556Z,93.40
2022-07-29T15:54:08.062Z,93.40
2022-07-29T15:56:35.041Z,93.60
2022-07-29T15:59:02.606Z,93.70
2022-07-29T16:01:29.869Z,94.00
2022-07-29T16:03:58.337Z,94.20
2022-07-29T16:06:25.808Z,94.30
2022-07-29T16:08:52.838Z,94.40
2022-07-29T16:11:19.840Z,94.40
2022-07-29T16:13:47.350Z,94.30
2022-07-29T16:16:15.156Z,94.40
2022-07-29T16:18:42.144Z,94.30
2022-07-29T16:21:09.648Z,94.40
2022-07-29T16:23:36.708Z,94.50
2022-07-29T16:26:03.745Z,94.80
2022-07-29T16:28:31.752Z,95.00
2022-07-29T16:30:58.823Z,95.10
2022-07-29T16:33:26.425Z,95.20
2022-07-29T16:35:54.010Z,95.40
2022-07-29T16:38:21.204Z,95.30
2022-07-29T16:40:49.065Z,95.30
2022-07-29T16:43:16.489Z,95.40
2022-07-29T16:45:46.002Z,95.20
2022-07-29T16:48:14.917Z,95.50
2022-07-29T16:50:43.158Z,95.50
2022-07-29T16:53:10.880Z,95.30
2022-07-29T16:55:38.981Z,95.80
2022-07-29T16:58:11.916Z,95.70
2022-07-29T17:00:39.168Z,96.00
2022-07-29T17:03:06.259Z,95.60
2022-07-29T17:05:53.764Z,95.60
2022-07-29T17:08:21.257Z,95.80
2022-07-29T17:10:49.073Z,95.80
2022-07-29T17:13:16.112Z,95.80
2022-07-29T17:15:43.178Z,95.80
2022-07-29T17:18:12.739Z,95.90
2022-07-29T17:20:41.448Z,95.80
2022-07-29T17:23:08.733Z,95.70
2022-07-29T17:25:36.366Z,95.80
2022-07-29T17:28:03.615Z,95.80
2022-07-29T17:30:30.764Z,95.70
2022-07-29T17:32:58.315Z,95.60
2022-07-29T17:35:25.427Z,95.70
2022-07-29T17:37:53.615Z,95.70
2022-07-29T17:40:21.187Z,95.90
2022-07-29T17:42:48.190Z,96.00
2022-07-29T17:45:15.306Z,96.20
2022-07-29T17:47:42.723Z,96.30
2022-07-29T17:50:09.871Z,96.50
2022-07-29T17:52:36.888Z,96.70
2022-07-29T17:55:04.866Z,96.80
2022-07-29T17:57:31.890Z,96.70
2022-07-29T17:59:58.908Z,96.80
2022-07-29T18:02:26.658Z,96.90
2022-07-29T18:04:55.658Z,97.10
2022-07-29T18:07:22.683Z,97.10
2022-07-29T18:09:50.140Z,97.10
2022-07-29T18:12:17.569Z,97.10
2022-07-29T18:14:44.541Z,97.20
2022-07-29T18:17:12.302Z,97.40
2022-07-29T18:19:39.328Z,97.50
2022-07-29T18:22:06.531Z,98.00
2022-07-29T18:24:34.618Z,98.10
2022-07-29T18:27:01.852Z,98.30
2022-07-29T18:29:29.210Z,98.50
2022-07-29T18:31:56.895Z,98.70
2022-07-29T18:34:23.871Z,99.00
2022-07-29T18:36:51.144Z,99.20
2022-07-29T18:39:20.975Z,99.30
2022-07-29T18:41:51.192Z,99.50
2022-07-29T18:44:20.149Z,99.80
2022-07-29T18:46:50.593Z,99.90
2022-07-29T18:49:18.212Z,99.90
2022-07-29T18:51:45.758Z,99.90
2022-07-29T18:54:13.484Z,99.90
2022-07-29T18:56:40.926Z,99.90
2022-07-29T18:59:08.059Z,99.90
2022-07-29T19:01:35.697Z,99.90
2022-07-29T19:04:02.810Z,99.90
2022-07-29T19:06:30.344Z,99.90
2022-07-29T19:08:57.659Z,99.90
2022-07-29T19:11:24.794Z,99.90
2022-07-29T19:13:52.146Z,99.90
2022-07-29T19:16:19.631Z,99.90
2022-07-29T19:18:46.682Z,99.90
2022-07-29T19:21:14.059Z,99.90
2022-07-29T19:24:04.247Z,99.90
2022-07-29T19:26:32.095Z,99.90
2022-07-29T19:28:59.719Z,99.90
2022-07-29T19:31:26.776Z,99.90
2022-07-29T19:33:54.099Z,99.90
2022-07-29T19:36:21.473Z,99.90
2022-07-29T19:38:48.701Z,99.90
2022-07-29T19:41:15.860Z,99.90
2022-07-29T19:43:50.504Z,99.90
2022-07-29T19:46:21.831Z,99.90
2022-07-29T19:48:49.697Z,99.90
2022-07-29T19:51:17.334Z,99.90
2022-07-29T19:53:44.487Z,99.90
2022-07-29T19:56:11.862Z,99.90
2022-07-29T19:58:38.903Z,99.90
2022-07-29T20:01:10.130Z,99.90
2022-07-29T20:03:39.711Z,99.90
2022-07-29T20:06:07.165Z,99.90
2022-07-29T20:08:34.653Z,99.90
2022-07-29T20:11:02.547Z,99.90
2022-07-29T20:13:29.560Z,99.90
2022-07-29T20:15:56.992Z,99.90
2022-07-29T20:18:24.577Z,99.90
2022-07-29T20:20:51.860Z,99.90
2022-07-29T20:23:18.923Z,99.90
2022-07-29T20:25:46.371Z,99.90
2022-07-29T20:28:13.416Z,99.90
2022-07-29T20:30:41.222Z,99.90
2022-07-29T20:33:08.636Z,99.90
2022-07-29T20:35:35.693Z,99.90
2022-07-29T20:38:02.894Z,99.90
2022-07-29T20:40:30.237Z,99.90
2022-07-29T20:42:57.336Z,99.90
2022-07-29T20:45:24.902Z,99.90
2022-07-29T20:47:52.584Z,99.90
2022-07-29T20:50:20.635Z,99.90
2022-07-29T20:52:51.718Z,99.90
2022-07-29T20:55:19.279Z,99.90
2022-07-29T20:57:46.330Z,99.90
2022-07-29T21:00:13.914Z,99.90
2022-07-29T21:02:41.350Z,99.90
2022-07-29T21:05:08.752Z,99.90
2022-07-29T21:07:35.865Z,99.90
2022-07-29T21:10:04.197Z,99.90
2022-07-29T21:12:31.156Z,99.90
2022-07-29T21:14:58.157Z,99.90
2022-07-29T21:17:25.510Z,99.90
2022-07-29T21:19:52.656Z,99.90
2022-07-29T21:22:20.456Z,99.90
2022-07-29T21:24:48.024Z,99.90
2022-07-29T21:27:20.849Z,99.90
2022-07-29T21:29:49.192Z,99.90
2022-07-29T21:32:27.538Z,99.90
2022-07-29T21:34:58.295Z,99.90
2022-07-29T21:37:25.438Z,99.90
2022-07-29T21:39:52.475Z,99.90
2022-07-29T21:42:19.949Z,99.90
2022-07-29T21:44:47.025Z,99.90
2022-07-29T21:47:14.116Z,99.90
2022-07-29T21:49:42.460Z,99.90
2022-07-29T21:52:09.541Z,99.90
2022-07-29T21:54:36.531Z,99.90
2022-07-29T21:57:04.866Z,99.90
2022-07-29T21:59:32.101Z,99.90
2022-07-29T22:01:59.197Z,99.90
2022-07-29T22:04:28.123Z,99.90
2022-07-29T22:06:55.866Z,99.90
2022-07-29T22:09:23.146Z,99.90
2022-07-29T22:11:51.051Z,99.90
2022-07-29T22:14:18.254Z,99.90
2022-07-29T22:16:46.869Z,99.90
2022-07-29T22:19:14.924Z,99.90
2022-07-29T22:21:42.417Z,99.90
2022-07-29T22:24:09.707Z,99.90
2022-07-29T22:26:37.571Z,99.90
2022-07-29T22:29:04.563Z,99.90
2022-07-29T22:31:31.600Z,99.90
2022-07-29T22:33:59.175Z,99.90
2022-07-29T22:36:26.374Z,99.90
2022-07-29T22:38:53.333Z,99.90
2022-07-29T22:41:20.759Z,99.90
2022-07-29T22:43:47.763Z,99.90
2022-07-29T22:46:14.815Z,99.90
2022-07-29T22:48:42.287Z,99.90
2022-07-29T22:51:09.301Z,99.90
2022-07-29T22:53:37.246Z,99.90
2022-07-29T22:56:04.906Z,99.90
2022-07-29T22:58:31.956Z,99.90
2022-07-29T23:00:59.027Z,99.90
2022-07-29T23:03:26.821Z,99.90
2022-07-29T23:05:53.896Z,99.90
2022-07-29T23:08:21.110Z,99.90
2022-07-29T23:10:48.605Z,99.90
2022-07-29T23:13:15.800Z,99.90
2022-07-29T23:15:42.838Z,99.90
2022-07-29T23:18:10.279Z,99.90
2022-07-29T23:20:37.271Z,99.90
2022-07-29T23:23:04.320Z,99.90
2022-07-29T23:25:32.239Z,99.90
2022-07-29T23:27:59.292Z,99.90
2022-07-29T23:30:26.728Z,99.90
2022-07-29T23:32:55.115Z,99.90
2022-07-29T23:35:22.835Z,99.90
2022-07-29T23:37:49.897Z,99.90
2022-07-29T23:40:17.321Z,99.90
2022-07-29T23:42:44.863Z,99.90
2022-07-29T23:45:13.543Z,99.90
2022-07-29T23:47:41.402Z,99.90
2022-07-29T23:50:09.941Z,99.90
2022-07-29T23:52:36.952Z,99.90
2022-07-29T23:55:38.691Z,99.90
2022-07-29T23:57:52.077Z,99.90
